Thunder radar more information blitzortung!


Löydät sääaseman tiedot myös:

European Weather Network

Finland Weather Exchange

Weather Underground

AWEKAS



Weather Underground säähistoriasivu

Päivittäin yhteenveto Elokuu 27, 2017 Yksiköt:  Englantilaiset    Metriset   Molemmat
« Edellinen Päivä
Seuraava Päivä »
Päivittäin Viikoittain Kuukausittain Vuosittain Mukautettu
  Korkea: Matala: Keskiarvo:
Lämpötila: TemperatureC °F 4.7 °F 8.9 °F
Kastepiste: DewpointC °F 3.9 °F 7.4 °F
Kosteus: Humidity % 80 % 90 %
Tuulen nopeus: WindSpeedKMH mph 0.0 mph 0.6 mph
Tuulenpuuska: WindSpeedGustKMH mph - -
Tuuli:- - West
Ilmanpaine: PressurehPa in 1010.4 in -
Sade: 1.0 in    
Historical Graphs
 
 
Taulukkotiedot Elokuu 27, 2017
Aika Lämpötila Kastepiste Ilmanpaine Tuuli Tuulen nopeus Tuulenpuuska Kosteus Sademäärä (tunneittain)
TemperatureC °F DewpointC °F PressurehPa in Calm     Humidity % HourlyPrecipMM in
00:00 7.7 °F 6.3 °F 1010.4 in Calm   3.2 mph 91 % 0.0 in
00:15 7.4 °F 6.2 °F 1010.4 in Calm     92 % 0.0 in
00:30 7.3 °F 6.2 °F 1010.4 in Calm     93 % 0.0 in
00:45 7.3 °F 6.4 °F 1010.7 in Calm     94 % 0.0 in
01:00 7.4 °F 6.5 °F 1010.7 in Calm     94 % 0.0 in
01:15 7.6 °F 6.7 °F 1010.7 in Calm   3.2 mph 94 % 0.0 in
01:30 7.8 °F 6.9 °F 1010.7 in Calm   4.8 mph 94 % 0.0 in
01:45 8.1 °F 7.1 °F 1010.7 in Calm   6.4 mph 94 % 0.0 in
02:00 8.1 °F 7.0 °F 1010.7 in Calm   1.6 mph 93 % 0.0 in
02:15 7.9 °F 6.8 °F 1010.7 in Calm     93 % 0.0 in
02:30 7.7 °F 6.8 °F 1010.7 in NW 1.6 mph 6.4 mph 94 % 0.0 in
02:45 7.7 °F 6.8 °F 1011.1 in WNW 1.6 mph 6.4 mph 94 % 0.0 in
03:00 7.8 °F 6.9 °F 1011.1 in NW 1.6 mph 4.8 mph 94 % 0.0 in
03:15 7.8 °F 6.9 °F 1011.1 in Calm   4.8 mph 94 % 0.0 in
03:30 7.9 °F 7.1 °F 1011.1 in Calm   3.2 mph 95 % 0.0 in
03:45 7.9 °F 7.2 °F 1011.1 in Calm   8.0 mph 95 % 0.0 in
04:00 8.0 °F 7.2 °F 1011.1 in Calm   3.2 mph 95 % 0.0 in
04:15 7.9 °F 7.2 °F 1011.4 in Calm     95 % 0.0 in
04:30 8.0 °F 7.2 °F 1011.4 in Calm   3.2 mph 95 % 0.0 in
04:45 8.0 °F 7.2 °F 1011.4 in Calm   3.2 mph 95 % 0.0 in
05:00 8.0 °F 7.2 °F 1011.4 in WNW 1.6 mph 6.4 mph 95 % 0.3 in
05:15 8.0 °F 7.2 °F 1011.4 in WNW 1.6 mph 4.8 mph 95 % 0.3 in
05:30 7.9 °F 7.2 °F 1011.4 in Calm   3.2 mph 95 % 0.3 in
05:45 7.9 °F 7.3 °F 1011.4 in Calm   3.2 mph 96 % 0.5 in
06:00 7.9 °F 7.3 °F 1011.4 in Calm     96 % 0.3 in
06:15 7.9 °F 7.3 °F 1011.4 in Calm     96 % 0.5 in
06:30 7.9 °F 7.3 °F 1011.7 in Calm     96 % 0.5 in
06:45 7.8 °F 7.2 °F 1011.7 in Calm   4.8 mph 96 % 0.3 in
07:00 7.8 °F 7.2 °F 1011.7 in Calm   6.4 mph 96 % 0.3 in
07:15 7.9 °F 7.3 °F 1011.7 in Calm     96 % 0.3 in
07:30 8.0 °F 7.4 °F 1011.7 in Calm   1.6 mph 96 % 0.3 in
08:00 8.1 °F 7.7 °F 1011.7 in Calm   4.8 mph 97 % 0.3 in
08:15 8.1 °F 7.7 °F 1012.1 in Calm   4.8 mph 97 % 0.0 in
08:30 8.2 °F 7.8 °F 1012.1 in Calm   4.8 mph 97 % 0.0 in
08:45 8.4 °F 7.9 °F 1012.1 in Calm   6.4 mph 97 % 0.0 in
09:00 8.6 °F 8.1 °F 1012.1 in Calm   4.8 mph 97 % 0.0 in
09:15 8.7 °F 8.3 °F 1012.4 in Calm   4.8 mph 97 % 0.0 in
09:30 8.8 °F 8.3 °F 1012.1 in Calm   3.2 mph 97 % 0.0 in
09:45 9.1 °F 8.5 °F 1012.4 in WNW 1.6 mph 9.7 mph 96 % 0.0 in
10:00 9.3 °F 8.7 °F 1012.4 in Calm   9.7 mph 96 % 0.0 in
10:15 9.1 °F 8.4 °F 1012.4 in Calm   4.8 mph 95 % 0.0 in
10:30 9.4 °F 8.5 °F 1012.4 in NW 1.6 mph 8.0 mph 94 % 0.0 in
10:45 9.4 °F 8.3 °F 1012.8 in NW 3.2 mph 14.5 mph 93 % 0.3 in
11:00 9.4 °F 8.0 °F 1012.8 in NW 1.6 mph 8.0 mph 91 % 0.3 in
11:15 9.8 °F 8.2 °F 1012.8 in WNW 1.6 mph 12.9 mph 90 % 0.3 in
11:30 10.3 °F 8.4 °F 1012.8 in NW 3.2 mph 14.5 mph 88 % 0.3 in
11:45 10.4 °F 8.5 °F 1012.8 in Calm   8.0 mph 88 % 0.0 in
12:00 10.4 °F 8.7 °F 1012.8 in Calm   3.2 mph 89 % 0.0 in
12:15 10.8 °F 8.4 °F 1012.8 in Calm   3.2 mph 85 % 0.0 in
12:30 11.3 °F 8.5 °F 1013.1 in NW 4.8 mph 16.1 mph 83 % 0.0 in
12:45 10.6 °F 8.5 °F 1013.1 in Calm   4.8 mph 87 % 0.0 in
13:00 10.4 °F 9.0 °F 1013.1 in Calm   6.4 mph 91 % 0.0 in
13:15 10.7 °F 8.5 °F 1013.1 in NW 1.6 mph 8.0 mph 86 % 0.0 in
13:30 10.8 °F 8.4 °F 1013.1 in North 3.2 mph 11.3 mph 85 % 0.0 in
13:45 10.2 °F 8.6 °F 1013.1 in NNE 1.6 mph 8.0 mph 90 % 0.0 in
14:00 10.3 °F 8.9 °F 1013.1 in NW 1.6 mph 8.0 mph 91 % 0.0 in
14:15 10.8 °F 8.8 °F 1013.1 in NW 1.6 mph 9.7 mph 87 % 0.0 in
14:30 10.9 °F 8.6 °F 1013.1 in NW 1.6 mph 6.4 mph 86 % 0.0 in
14:45 11.2 °F 8.7 °F 1013.4 in NW 1.6 mph 9.7 mph 85 % 0.0 in
15:00 11.4 °F 9.0 °F 1013.4 in Calm   6.4 mph 85 % 0.0 in
15:15 11.9 °F 8.5 °F 1013.4 in Calm   11.3 mph 80 % 0.0 in
15:30 11.1 °F 8.7 °F 1013.4 in NW 3.2 mph 12.9 mph 85 % 0.0 in
15:45 10.8 °F 8.6 °F 1013.4 in NNW 3.2 mph 14.5 mph 86 % 0.0 in
16:00 10.8 °F 8.2 °F 1013.4 in North 3.2 mph 8.0 mph 84 % 0.0 in
16:15 10.8 °F 8.4 °F 1013.4 in North 3.2 mph 9.7 mph 85 % 0.0 in
16:30 10.9 °F 8.3 °F 1013.8 in NNW 1.6 mph 9.7 mph 84 % 0.0 in
16:45 10.9 °F 8.0 °F 1013.8 in North 1.6 mph 9.7 mph 82 % 0.0 in
17:00 11.3 °F 8.3 °F 1013.8 in Calm   4.8 mph 82 % 0.0 in
17:15 11.3 °F 8.3 °F 1013.8 in Calm   4.8 mph 82 % 0.0 in
17:30 11.2 °F 8.0 °F 1013.8 in Calm   3.2 mph 81 % 0.0 in
17:45 11.1 °F 8.3 °F 1013.8 in Calm   1.6 mph 83 % 0.0 in
18:00 11.1 °F 7.9 °F 1014.1 in Calm   1.6 mph 81 % 0.0 in
18:15 11.1 °F 8.1 °F 1014.1 in Calm     82 % 0.0 in
18:30 10.9 °F 8.2 °F 1014.1 in Calm   3.2 mph 83 % 0.0 in
18:45 11.1 °F 8.3 °F 1014.1 in Calm   1.6 mph 83 % 0.0 in
19:00 11.1 °F 7.9 °F 1014.1 in Calm   4.8 mph 81 % 0.0 in
19:15 10.9 °F 8.0 °F 1014.1 in Calm   4.8 mph 82 % 0.0 in
19:30 10.6 °F 7.7 °F 1014.1 in Calm   1.6 mph 82 % 0.0 in
19:45 10.4 °F 7.9 °F 1014.1 in Calm   3.2 mph 84 % 0.0 in
20:00 10.3 °F 7.9 °F 1014.4 in Calm   3.2 mph 85 % 0.0 in
20:15 10.1 °F 7.9 °F 1014.4 in Calm     86 % 0.0 in
20:30 10.0 °F 7.9 °F 1014.4 in Calm     87 % 0.0 in
20:45 9.6 °F 7.6 °F 1014.4 in Calm     87 % 0.0 in
21:00 9.0 °F 7.1 °F 1014.4 in Calm     88 % 0.0 in
21:15 8.3 °F 6.6 °F 1014.4 in Calm     89 % 0.0 in
21:30 7.5 °F 6.1 °F 1014.8 in Calm     91 % 0.0 in
21:45 6.9 °F 5.7 °F 1014.8 in Calm     92 % 0.0 in
22:00 6.4 °F 5.2 °F 1015.1 in Calm     92 % 0.0 in
22:15 5.9 °F 4.8 °F 1015.1 in Calm     93 % 0.0 in
22:30 5.5 °F 4.5 °F 1015.1 in Calm     93 % 0.0 in
22:45 5.3 °F 4.4 °F 1015.1 in Calm     94 % 0.0 in
23:00 5.1 °F 4.2 °F 1015.1 in Calm     94 % 0.0 in
23:15 4.9 °F 4.1 °F 1015.1 in Calm     94 % 0.0 in
23:30 4.8 °F 3.9 °F 1015.5 in Calm     94 % 0.0 in
23:45 4.7 °F 3.9 °F 1015.5 in Calm     95 % 0.0 in
Esan sääasema
Terveisin Weather Underground - 2.75 mb

Alkuperäinen skripti  Jim McMurry - jmcmurry@mwt.net Sovitettu myös templatelle  Wim van der Kuil - Leuven-Template.eu

Laitteet joita käytämme:

Sääasema
Davis VP2

Sääasemaohjelma
Cumulus

Sääaseman tietokone
Asus EeePC

Palveluntarjoaja
Suncomet

Davis VP2

Cumulus

Asus EeePC

Suncomet